Etusivu
METAR-TAF:

METAR-TAF

Lentoasemat :

Mo i Rana, Norja

Leveyspiiri: 66-22N, Pituuspiiri: 014-18E, korkeus merenpinnasta: 7 m

Tämänhetkinen sää

Tämä raportti tehtiin 39 minuuttia sitten, kello 14.20 UTC
Tuuli 9 kn idästä
Lämpötila 2°C
Kosteus 64%
Ilmanpaine 987 hPa
Näkyvyys 10 km tai enemmän
Muutamia pilviä 4000 ft:n korkeudessa

METAR: ENRA 241420Z 10009KT 9999 FEW040 02/M04 Q0987

Aika: 15:59 (14:59 UTC)

Sääennuste

Tämä raportti tehtiin 59 minuuttia sitten, kello 14.00 UTC
Ennuste voimassa 24. päivästä klo 15 UTC - 24. päivään klo 23 UTC
Tuuli 8 kn idästä
Näkyvyys 10 km tai enemmän
Hajonneita pilviä 3000 ft:n korkeudessa

TAF: ENRA 241400Z 2415/2423 10008KT 9999 BKN030

Säähavainnot ja -ennusteet yli 4000 lentoasemalta (METAR- ja TAF-raportit).

Käytössä olevat sääasemat on merkitty karttaan keltaisilla ja punaisilla pisteillä.

Aseta hiiri pisteen päälle nähdäksesi sääaseman nimen.

Klikkaa sitten nähdäksesi säähavainnot ja -ennusteet.

Kartan vaihtaminen: klikkaa mustalla rastilla varustettuja vihreitä pisteitä, niin voit zoomata sisään; viivalla varustettua vihreää pistettä, niin voit zoomata ulos tai vihreitä nuolia, niin pääset viereisille kartoille.


METAR-TAF: